Time;durP1;ratioP1;P1;durP2;ratioP2;P2;SDS_P1;SDS_P2;PMS_P1;PMS_P2;Temp;Humidity;BMP_temperature;BMP_pressure;BME280_temperature;BME280_humidity;BME280_pressure;Samples;Min_cycle;Max_cycle;Signal;HPM_P1;HPM_P2
2022/09/08 00:01:47;;;;;;;26.20;21.90;;;15.50;99.90;;;;;;4895343;29;20183;-50
2022/09/08 00:04:13;;;;;;;27.00;21.63;;;15.50;99.90;;;;;;4896647;29;20211;-50
2022/09/08 00:06:39;;;;;;;25.83;20.80;;;15.40;99.90;;;;;;4877861;29;20252;-51
2022/09/08 00:09:04;;;;;;;21.13;18.90;;;15.40;99.90;;;;;;4877974;29;20908;-49
2022/09/08 00:11:33;;;;;;;25.23;20.47;;;15.30;99.90;;;;;;4865933;29;20204;-50
2022/09/08 00:14:04;;;;;;;25.13;21.83;;;15.30;1.00;;;;;;4859672;29;20429;-51
2022/09/08 00:16:30;;;;;;;26.83;22.90;;;15.30;1.00;;;;;;4885661;29;20451;-50
2022/09/08 00:18:56;;;;;;;26.93;22.90;;;15.30;1.00;;;;;;4896268;29;20491;-52
2022/09/08 00:21:25;;;;;;;28.10;24.03;;;15.20;1.00;;;;;;4894999;29;20997;-50
2022/09/08 00:23:51;;;;;;;26.03;23.23;;;15.20;1.00;;;;;;4889452;29;20216;-50
2022/09/08 00:26:18;;;;;;;25.60;22.00;;;15.10;1.00;;;;;;4879022;29;20778;-51
2022/09/08 00:28:43;;;;;;;24.87;21.80;;;15.10;1.00;;;;;;4896026;29;20231;-50
2022/09/08 00:31:09;;;;;;;26.53;22.00;;;15.10;1.00;;;;;;4878288;29;20978;-50
2022/09/08 00:33:35;;;;;;;29.73;23.33;;;15.00;1.00;;;;;;4876734;29;20530;-50
2022/09/08 00:36:03;;;;;;;27.60;23.63;;;15.00;1.00;;;;;;4876571;29;20610;-50
2022/09/08 00:38:30;;;;;;;28.50;22.67;;;15.00;1.00;;;;;;4887031;29;20200;-50
2022/09/08 00:40:56;;;;;;;29.73;24.00;;;15.00;1.00;;;;;;4876618;29;20916;-50
2022/09/08 00:43:35;;;;;;;29.17;23.33;;;15.00;1.00;;;;;;4874418;29;20473;-51
2022/09/08 00:46:20;;;;;;;26.70;23.60;;;15.00;1.00;;;;;;4884425;29;20484;-50
2022/09/08 00:48:49;;;;;;;30.17;23.60;;;15.00;1.00;;;;;;4894071;29;20491;-49
2022/09/08 00:51:16;;;;;;;27.57;23.83;;;15.00;1.00;;;;;;4895979;29;20412;-51
2022/09/08 00:53:44;;;;;;;26.20;21.57;;;15.00;1.00;;;;;;4890140;29;20542;-50
2022/09/08 00:56:10;;;;;;;29.03;23.60;;;14.90;1.00;;;;;;4877196;29;20592;-53
2022/09/08 00:58:37;;;;;;;25.40;21.53;;;14.90;1.00;;;;;;4874263;29;20907;-50
2022/09/08 01:01:04;;;;;;;23.93;21.33;;;14.80;1.00;;;;;;4877157;29;20199;-50
2022/09/08 01:03:31;;;;;;;30.33;24.20;;;14.80;1.00;;;;;;4877063;29;20460;-50
2022/09/08 01:06:06;;;;;;;32.30;26.60;;;14.80;1.00;;;;;;4877281;29;20436;-49
2022/09/08 01:14:44;;;;;;;31.33;24.37;;;14.80;21.20;;;;;;4876870;29;20526;-50
2022/09/08 01:17:23;;;;;;;29.73;24.40;;;14.70;19.70;;;;;;4878031;29;21160;-49
2022/09/08 01:19:49;;;;;;;29.93;24.57;;;14.70;31.30;;;;;;4875047;29;20463;-50
2022/09/08 01:22:27;;;;;;;35.20;24.60;;;14.70;40.40;;;;;;4881019;29;20564;-49
2022/09/08 01:25:28;;;;;;;28.53;23.73;;;14.70;40.60;;;;;;4874545;29;20624;-49
2022/09/08 01:28:07;;;;;;;34.50;28.17;;;14.70;42.40;;;;;;4880757;29;20480;-50
2022/09/08 01:30:35;;;;;;;282.53;177.80;;;14.60;44.40;;;;;;4875370;29;20452;-49
2022/09/08 01:33:04;;;;;;;82.00;57.77;;;14.60;49.80;;;;;;4890582;29;20451;-50
2022/09/08 01:35:41;;;;;;;36.30;28.60;;;14.60;55.50;;;;;;4882591;29;21111;-49
2022/09/08 01:38:08;;;;;;;33.30;27.53;;;14.60;92.90;;;;;;4866451;29;21031;-50
2022/09/08 01:40:34;;;;;;;31.10;27.73;;;14.60;99.90;;;;;;4876120;29;20448;-50
2022/09/08 01:42:59;;;;;;;36.00;26.73;;;14.60;99.90;;;;;;4877192;29;20487;-49
2022/09/08 01:45:27;;;;;;;28.10;24.43;;;14.60;99.90;;;;;;4876091;29;20449;-50
2022/09/08 01:47:53;;;;;;;31.93;25.33;;;14.70;99.90;;;;;;4879951;29;20248;-49
2022/09/08 01:50:19;;;;;;;31.93;26.13;;;14.70;99.90;;;;;;4884796;29;20457;-50
2022/09/08 01:52:44;;;;;;;33.20;27.07;;;14.70;99.90;;;;;;4876637;29;20431;-50
2022/09/08 01:55:10;;;;;;;32.40;25.07;;;14.70;99.90;;;;;;4875791;29;20200;-49
2022/09/08 01:57:36;;;;;;;29.70;25.00;;;14.70;99.90;;;;;;4869312;29;20232;-50
2022/09/08 02:00:02;;;;;;;30.50;26.03;;;14.60;99.90;;;;;;4863543;29;20585;-50
2022/09/08 02:02:28;;;;;;;32.47;26.03;;;14.60;99.90;;;;;;4875682;29;20196;-50
2022/09/08 02:04:53;;;;;;;29.27;24.77;;;14.60;99.90;;;;;;4877557;29;20494;-49
2022/09/08 02:07:19;;;;;;;32.10;25.37;;;14.60;99.90;;;;;;4892299;29;20216;-50
2022/09/08 02:09:45;;;;;;;30.77;24.10;;;14.60;99.90;;;;;;4890807;29;20201;-50
2022/09/08 02:12:10;;;;;;;33.57;25.30;;;14.60;99.90;;;;;;4879768;29;20204;-50
2022/09/08 02:14:36;;;;;;;32.00;25.50;;;14.60;99.90;;;;;;4879814;29;20223;-50
2022/09/08 02:17:02;;;;;;;33.13;25.00;;;14.70;99.90;;;;;;4878813;29;20207;-50
2022/09/08 02:19:27;;;;;;;31.50;26.27;;;14.70;99.90;;;;;;4879414;29;20238;-50
2022/09/08 02:21:53;;;;;;;36.33;25.73;;;14.70;99.90;;;;;;4872105;29;20204;-50
2022/09/08 02:24:18;;;;;;;32.57;25.60;;;14.70;99.90;;;;;;4875311;29;20238;-50
2022/09/08 02:26:44;;;;;;;32.10;25.50;;;14.80;99.90;;;;;;4879031;29;20639;-49
2022/09/08 02:29:09;;;;;;;33.37;25.27;;;14.70;99.90;;;;;;4879096;29;20562;-51
2022/09/08 02:31:36;;;;;;;30.40;23.97;;;14.70;99.90;;;;;;4862376;29;20193;-50
2022/09/08 02:34:02;;;;;;;27.57;22.80;;;14.70;99.90;;;;;;4873973;29;20201;-50
2022/09/08 02:36:28;;;;;;;31.50;23.87;;;14.60;99.90;;;;;;4891243;29;20469;-50
2022/09/08 02:38:55;;;;;;;32.13;24.47;;;14.60;99.90;;;;;;4870106;29;20888;-50
2022/09/08 02:41:22;;;;;;;31.80;24.90;;;14.50;99.90;;;;;;4872251;29;20282;-52
2022/09/08 02:43:47;;;;;;;28.77;24.17;;;14.40;99.90;;;;;;4877622;29;20488;-50
2022/09/08 02:46:14;;;;;;;28.47;23.00;;;14.40;99.90;;;;;;4878844;29;21126;-50
2022/09/08 02:48:40;;;;;;;24.50;21.77;;;14.40;99.90;;;;;;4869020;29;20203;-50
2022/09/08 02:51:08;;;;;;;29.37;22.73;;;14.30;99.90;;;;;;4863700;29;20440;-50
2022/09/08 02:53:35;;;;;;;27.33;23.57;;;14.30;99.90;;;;;;4862559;29;20196;-50
2022/09/08 02:56:01;;;;;;;27.37;21.87;;;14.20;99.90;;;;;;4862004;29;20496;-50
2022/09/08 02:58:28;;;;;;;30.00;23.80;;;14.20;99.90;;;;;;4858969;29;20458;-50
2022/09/08 03:00:54;;;;;;;28.40;22.70;;;14.20;99.90;;;;;;4853387;29;20488;-50
2022/09/08 03:03:21;;;;;;;30.00;23.33;;;14.20;99.90;;;;;;4882388;29;20488;-50
2022/09/08 03:05:48;;;;;;;29.23;24.27;;;14.10;99.90;;;;;;4880255;29;20458;-50
2022/09/08 03:08:14;;;;;;;27.60;21.90;;;14.10;99.90;;;;;;4870862;29;20445;-50
2022/09/08 03:10:40;;;;;;;29.03;23.87;;;14.10;99.90;;;;;;4862856;29;20449;-50
2022/09/08 03:13:06;;;;;;;28.27;24.00;;;14.10;99.90;;;;;;4861435;29;22286;-50
2022/09/08 03:15:32;;;;;;;29.40;23.10;;;14.00;99.90;;;;;;4865352;29;20867;-50
2022/09/08 03:17:58;;;;;;;29.53;22.87;;;14.10;99.90;;;;;;4859159;29;20204;-50
2022/09/08 03:20:25;;;;;;;28.83;22.53;;;14.10;99.90;;;;;;4862471;29;20452;-50
2022/09/08 03:22:51;;;;;;;34.77;23.53;;;14.00;99.90;;;;;;4862479;29;20476;-51
2022/09/08 03:25:18;;;;;;;33.07;22.60;;;14.00;99.90;;;;;;4863092;29;20472;-49
2022/09/08 03:27:44;;;;;;;28.47;22.23;;;14.10;99.90;;;;;;4870046;29;20524;-50
2022/09/08 03:30:13;;;;;;;28.00;23.53;;;14.10;99.90;;;;;;4861827;29;20465;-50
2022/09/08 03:32:42;;;;;;;26.10;22.23;;;14.10;99.90;;;;;;4876591;29;20452;-50
2022/09/08 03:35:11;;;;;;;32.33;23.70;;;14.00;99.90;;;;;;4878549;29;20421;-49
2022/09/08 03:37:38;;;;;;;27.20;21.23;;;14.00;99.90;;;;;;4879605;29;20445;-49
2022/09/08 03:40:06;;;;;;;25.93;21.00;;;14.00;99.90;;;;;;4870790;29;20488;-51
2022/09/08 03:42:34;;;;;;;27.20;21.47;;;13.90;99.90;;;;;;4876080;29;20487;-49
2022/09/08 03:45:00;;;;;;;23.50;20.53;;;13.90;99.90;;;;;;4870757;29;20545;-52
2022/09/08 03:47:25;;;;;;;26.53;22.70;;;13.80;99.90;;;;;;4877190;29;20583;-49
2022/09/08 03:49:51;;;;;;;27.60;21.30;;;13.90;99.90;;;;;;4876960;29;20532;-50
2022/09/08 03:52:17;;;;;;;23.67;20.33;;;13.90;99.90;;;;;;4877704;29;20204;-50
2022/09/08 03:54:48;;;;;;;26.27;22.23;;;13.90;99.90;;;;;;4870230;29;20192;-50
2022/09/08 03:57:15;;;;;;;27.33;21.27;;;13.90;99.90;;;;;;4872890;29;20192;-49
2022/09/08 03:59:42;;;;;;;29.50;22.23;;;13.90;99.90;;;;;;4875247;29;20843;-49
2022/09/08 04:02:09;;;;;;;25.83;21.40;;;13.90;99.90;;;;;;4875447;29;20908;-50
2022/09/08 04:04:35;;;;;;;25.03;21.17;;;13.80;99.90;;;;;;4875883;29;20507;-50
2022/09/08 04:07:01;;;;;;;25.20;21.10;;;13.80;99.90;;;;;;4877557;29;20457;-50
2022/09/08 04:09:27;;;;;;;26.60;22.10;;;13.70;99.90;;;;;;4880696;29;20452;-49
2022/09/08 04:11:52;;;;;;;25.80;21.50;;;13.70;99.90;;;;;;4876828;29;20218;-50
2022/09/08 04:14:18;;;;;;;29.00;22.00;;;13.70;99.90;;;;;;4876258;29;20452;-50
2022/09/08 04:16:44;;;;;;;23.87;20.17;;;13.70;99.90;;;;;;4876956;29;20283;-50
2022/09/08 04:19:13;;;;;;;29.57;22.40;;;13.70;99.90;;;;;;4876135;29;20236;-50
2022/09/08 04:21:39;;;;;;;23.10;20.10;;;13.70;99.90;;;;;;4877196;29;20464;-50
2022/09/08 04:24:05;;;;;;;28.27;21.03;;;13.80;99.90;;;;;;4876055;29;20476;-51
2022/09/08 04:26:31;;;;;;;23.40;19.03;;;13.80;99.90;;;;;;4876184;29;20200;-46
2022/09/08 04:28:58;;;;;;;23.03;19.20;;;13.80;99.90;;;;;;4896693;29;21163;-46
2022/09/08 04:31:24;;;;;;;23.60;19.23;;;13.90;99.90;;;;;;4894860;29;20651;-46
2022/09/08 04:33:49;;;;;;;25.03;19.37;;;13.90;99.90;;;;;;4893166;29;20448;-46
2022/09/08 04:36:18;;;;;;;28.37;20.23;;;13.90;99.90;;;;;;4896053;29;20528;-46
2022/09/08 04:38:44;;;;;;;26.83;19.90;;;13.90;99.90;;;;;;4894444;29;20291;-48
2022/09/08 04:41:12;;;;;;;25.57;19.57;;;13.90;99.90;;;;;;4894086;29;20973;-46
2022/09/08 04:43:38;;;;;;;22.30;18.00;;;13.80;99.90;;;;;;4892571;29;20964;-46
2022/09/08 04:46:07;;;;;;;23.83;18.60;;;13.90;99.90;;;;;;4894023;29;20460;-46
2022/09/08 04:48:34;;;;;;;21.83;18.30;;;13.90;99.90;;;;;;4896813;29;20451;-50
2022/09/08 04:51:00;;;;;;;25.50;18.07;;;14.00;99.90;;;;;;4892968;29;20497;-46
2022/09/08 04:53:28;;;;;;;24.07;18.87;;;14.00;99.90;;;;;;4893994;29;20455;-46
2022/09/08 04:55:54;;;;;;;22.30;17.60;;;14.00;99.90;;;;;;4895611;29;20540;-46
2022/09/08 04:58:20;;;;;;;18.90;16.70;;;14.00;99.90;;;;;;4895446;29;20448;-46
2022/09/08 05:00:46;;;;;;;20.33;17.10;;;14.10;99.90;;;;;;4893928;29;20627;-47
2022/09/08 05:03:11;;;;;;;19.23;16.57;;;14.10;99.90;;;;;;4899677;29;20565;-46
2022/09/08 05:05:38;;;;;;;21.37;18.10;;;14.10;99.90;;;;;;4890400;29;20218;-46
2022/09/08 05:08:04;;;;;;;19.03;15.43;;;14.10;99.90;;;;;;4913674;29;20194;-46
2022/09/08 05:10:32;;;;;;;20.90;17.40;;;14.10;99.90;;;;;;4905851;29;20465;-46
2022/09/08 05:12:58;;;;;;;19.43;16.10;;;14.20;99.90;;;;;;4890847;29;20187;-47
2022/09/08 05:15:24;;;;;;;19.50;15.07;;;14.20;99.90;;;;;;4894904;29;20800;-46
2022/09/08 05:17:50;;;;;;;18.53;15.80;;;14.20;99.90;;;;;;4894075;29;20447;-47
2022/09/08 05:20:15;;;;;;;18.07;14.30;;;14.20;99.90;;;;;;4892765;29;20452;-47
2022/09/08 05:22:41;;;;;;;23.47;16.73;;;14.30;99.90;;;;;;4894811;29;20196;-47
2022/09/08 05:25:08;;;;;;;17.87;14.07;;;14.30;99.90;;;;;;4891015;29;20206;-47
2022/09/08 05:27:33;;;;;;;16.63;14.83;;;14.30;99.90;;;;;;4887184;29;20665;-47
2022/09/08 05:29:59;;;;;;;18.10;14.33;;;14.40;98.10;;;;;;4874527;29;20457;-47
2022/09/08 05:32:24;;;;;;;16.63;14.60;;;14.50;57.30;;;;;;4876597;29;20188;-47
2022/09/08 05:34:50;;;;;;;15.23;13.60;;;14.50;25.20;;;;;;4893917;29;20242;-47
2022/09/08 05:37:16;;;;;;;24.50;14.27;;;14.60;3.60;;;;;;4887458;29;20207;-47
2022/09/08 05:39:42;;;;;;;19.90;13.53;;;14.70;1.00;;;;;;4882836;29;20476;-47
2022/09/08 05:42:08;;;;;;;15.17;13.47;;;14.70;1.00;;;;;;4886758;29;20233;-47
2022/09/08 05:44:33;;;;;;;17.67;12.47;;;14.80;1.00;;;;;;4879727;29;20224;-47
2022/09/08 05:46:59;;;;;;;16.50;12.37;;;14.80;1.00;;;;;;4888765;29;20540;-47
2022/09/08 05:49:25;;;;;;;16.10;12.30;;;14.90;1.00;;;;;;4882967;29;20192;-47
2022/09/08 05:51:52;;;;;;;15.00;13.50;;;15.00;1.00;;;;;;4890573;29;20196;-47
2022/09/08 05:54:20;;;;;;;19.47;12.50;;;15.10;99.90;;;;;;4880507;29;20192;-47
2022/09/08 05:56:45;;;;;;;14.43;11.90;;;15.10;99.90;;;;;;4889164;29;20476;-49
2022/09/08 05:59:11;;;;;;;12.23;10.97;;;15.20;99.90;;;;;;4882895;29;20461;-47
2022/09/08 06:01:37;;;;;;;13.90;11.40;;;15.30;1.00;;;;;;4877531;29;20195;-47
2022/09/08 06:04:03;;;;;;;15.47;11.50;;;15.30;1.00;;;;;;4880034;29;20480;-48
2022/09/08 06:06:30;;;;;;;17.03;11.60;;;15.40;1.00;;;;;;4885738;29;20241;-47
2022/09/08 06:08:59;;;;;;;14.70;11.63;;;15.50;1.00;;;;;;4882525;29;20191;-48
2022/09/08 06:11:25;;;;;;;13.53;10.60;;;15.60;99.90;;;;;;4881326;29;20449;-48
2022/09/08 06:13:51;;;;;;;18.57;11.03;;;15.60;99.90;;;;;;4890930;29;20447;-48
2022/09/08 06:16:17;;;;;;;14.10;10.43;;;15.70;7.00;;;;;;4886150;29;20926;-47
2022/09/08 06:18:44;;;;;;;16.07;11.03;;;15.70;1.00;;;;;;4889213;29;20221;-48
2022/09/08 06:21:18;;;;;;;14.40;10.50;;;15.70;99.90;;;;;;4879561;29;20718;-48
2022/09/08 06:23:48;;;;;;;15.53;10.63;;;15.80;99.90;;;;;;4878242;29;20516;-48
2022/09/08 06:26:33;;;;;;;13.67;9.50;;;15.90;99.90;;;;;;4884078;29;20453;-48
2022/09/08 06:29:08;;;;;;;15.27;10.10;;;15.90;69.10;;;;;;4875213;29;20488;-47
2022/09/08 06:31:38;;;;;;;11.77;9.10;;;16.10;99.90;;;;;;4874606;29;20994;-48
2022/09/08 06:34:15;;;;;;;11.77;9.47;;;16.10;1.00;;;;;;4877074;29;20466;-48
2022/09/08 06:37:02;;;;;;;15.37;10.30;;;16.20;1.00;;;;;;4878425;29;20448;-48
2022/09/08 06:39:43;;;;;;;16.53;9.60;;;16.30;99.90;;;;;;4877757;29;20456;-48
2022/09/08 06:42:30;;;;;;;12.10;9.53;;;16.30;1.00;;;;;;4875322;29;20457;-48
2022/09/08 06:44:59;;;;;;;11.00;8.70;;;16.40;99.90;;;;;;4877665;29;20544;-48
2022/09/08 06:47:33;;;;;;;13.57;8.00;;;16.30;99.90;;;;;;4879892;29;20805;-48
2022/09/08 06:49:59;;;;;;;11.13;9.20;;;16.40;1.00;;;;;;4877929;29;20444;-48
2022/09/08 06:52:38;;;;;;;11.77;8.50;;;16.40;99.90;;;;;;4874480;29;20953;-48
2022/09/08 06:55:33;;;;;;;11.60;8.17;;;16.40;1.00;;;;;;4876802;29;20802;-48
2022/09/08 06:58:16;;;;;;;9.43;7.60;;;16.40;99.90;;;;;;4889494;29;20436;-48
2022/09/08 07:00:56;;;;;;;10.80;7.23;;;16.40;99.90;;;;;;4870532;29;20516;-47
2022/09/08 07:03:37;;;;;;;12.47;8.40;;;16.40;81.30;;;;;;4878014;29;20476;-47
2022/09/08 07:06:06;;;;;;;12.37;7.70;;;16.40;1.00;;;;;;4878029;29;20480;-48
2022/09/08 07:08:45;;;;;;;9.03;8.10;;;16.50;1.00;;;;;;4878644;29;20464;-47
2022/09/08 07:11:45;;;;;;;14.33;7.77;;;16.50;1.00;;;;;;4877650;29;20456;-48
2022/09/08 07:14:33;;;;;;;13.57;8.73;;;16.50;1.00;;;;;;4872109;29;20488;-48
2022/09/08 07:17:03;;;;;;;11.10;7.90;;;16.60;1.00;;;;;;4843757;29;20488;-48
2022/09/08 07:19:52;;;;;;;12.00;7.10;;;16.60;1.00;;;;;;4876251;29;20444;-48
2022/09/08 07:22:26;;;;;;;14.30;8.00;;;16.70;1.00;;;;;;4870186;29;20950;-48
2022/09/08 07:24:56;;;;;;;9.20;7.40;;;16.70;1.00;;;;;;4877020;29;20476;-48
2022/09/08 07:27:23;;;;;;;11.93;7.57;;;16.70;1.00;;;;;;4873913;29;20520;-48
2022/09/08 07:29:52;;;;;;;8.70;7.80;;;16.80;1.00;;;;;;4875735;29;20485;-48
2022/09/08 07:32:25;;;;;;;15.43;7.30;;;16.90;1.00;;;;;;4874458;29;20461;-48
2022/09/08 07:35:00;;;;;;;10.53;6.90;;;16.90;1.00;;;;;;4869126;29;20444;-48
2022/09/08 07:37:37;;;;;;;9.20;6.33;;;16.90;1.00;;;;;;4879916;29;20441;-48
2022/09/08 07:40:18;;;;;;;15.90;7.10;;;16.90;1.00;;;;;;4875916;29;21725;-48
2022/09/08 07:42:49;;;;;;;9.70;7.37;;;17.00;1.00;;;;;;4888803;29;20443;-48
2022/09/08 07:45:15;;;;;;;10.50;7.40;;;16.90;1.00;;;;;;4877844;29;20453;-50
2022/09/08 07:47:50;;;;;;;12.97;7.20;;;16.90;1.00;;;;;;4877376;29;20445;-49
2022/09/08 07:50:53;;;;;;;10.40;6.30;;;16.90;1.00;;;;;;4876342;29;20444;-48
2022/09/08 07:53:23;;;;;;;10.00;6.17;;;16.80;1.00;;;;;;4866224;29;20480;-48
2022/09/08 07:55:49;;;;;;;10.23;6.53;;;16.90;1.00;;;;;;4870627;29;20452;-49
2022/09/08 07:58:26;;;;;;;7.83;6.43;;;16.90;1.00;;;;;;4868707;29;20482;-49
2022/09/08 08:01:06;;;;;;;11.73;5.90;;;16.80;1.00;;;;;;4871829;29;20444;-48
2022/09/08 08:03:53;;;;;;;16.17;6.90;;;16.80;1.00;;;;;;4875687;29;20462;-48
2022/09/08 08:06:35;;;;;;;10.03;6.60;;;16.90;1.00;;;;;;4877082;29;20412;-49
2022/09/08 08:09:20;;;;;;;14.30;6.30;;;16.90;1.00;;;;;;4862362;29;20568;-48
2022/09/08 08:12:04;;;;;;;11.43;6.50;;;17.00;1.00;;;;;;4865776;29;20433;-49
2022/09/08 08:14:44;;;;;;;6.80;6.03;;;17.00;1.00;;;;;;4872191;29;20453;-49
2022/09/08 08:17:17;;;;;;;9.50;5.90;;;16.90;1.00;;;;;;4877677;29;20443;-48
2022/09/08 08:19:46;;;;;;;10.20;6.10;;;16.90;1.00;;;;;;4870343;29;20573;-49
2022/09/08 08:22:26;;;;;;;13.10;6.33;;;17.00;1.00;;;;;;4881361;29;20512;-49
2022/09/08 08:25:01;;;;;;;8.93;6.57;;;17.00;1.00;;;;;;4863640;29;20524;-48
2022/09/08 08:28:03;;;;;;;7.30;5.43;;;16.90;1.00;;;;;;4872713;29;20493;-49
2022/09/08 08:30:34;;;;;;;8.07;5.50;;;16.80;1.00;;;;;;4880138;29;20467;-49
2022/09/08 08:33:18;;;;;;;9.53;5.90;;;16.80;1.00;;;;;;4862559;29;20465;-59
2022/09/08 08:35:52;;;;;;;10.57;5.73;;;16.70;1.00;;;;;;4881185;29;20457;-49
2022/09/08 08:38:22;;;;;;;8.80;5.50;;;16.70;1.00;;;;;;4861314;29;20540;-49
2022/09/08 08:40:57;;;;;;;12.77;5.87;;;16.70;1.00;;;;;;4872744;29;20988;-48
2022/09/08 08:44:05;;;;;;;7.40;5.67;;;16.70;1.00;;;;;;4873402;29;20480;-50
2022/09/08 08:47:08;;;;;;;8.43;5.63;;;16.70;1.00;;;;;;4874086;29;20532;-49
2022/09/08 08:49:51;;;;;;;15.17;6.70;;;16.70;1.00;;;;;;4876140;29;20776;-49
2022/09/08 08:52:30;;;;;;;9.30;5.20;;;16.60;1.00;;;;;;4874789;29;20439;-48
2022/09/08 08:55:14;;;;;;;12.10;5.43;;;16.70;1.00;;;;;;4877395;29;20454;-49
2022/09/08 08:57:48;;;;;;;7.60;5.50;;;16.60;1.00;;;;;;4877904;29;20484;-48
2022/09/08 09:00:30;;;;;;;7.07;4.97;;;16.70;1.00;;;;;;4877309;29;20520;-49
2022/09/08 09:03:02;;;;;;;11.80;5.03;;;16.80;99.90;;;;;;4861792;29;20473;-49
2022/09/08 09:05:38;;;;;;;9.90;5.60;;;16.80;99.90;;;;;;4873882;29;20452;-48
2022/09/08 09:08:43;;;;;;;7.80;5.17;;;16.90;99.90;;;;;;4877799;29;20447;-49
2022/09/08 09:11:33;;;;;;;7.80;5.40;;;17.00;99.90;;;;;;4852762;29;20576;-49
2022/09/08 09:14:36;;;;;;;7.77;4.73;;;17.10;99.90;;;;;;4877964;29;20851;-48
2022/09/08 09:17:29;;;;;;;9.30;5.00;;;17.20;99.90;;;;;;4800887;29;20546;-49
2022/09/08 09:20:11;;;;;;;6.27;4.70;;;17.40;99.90;;;;;;4864160;29;20461;-49
2022/09/08 09:22:37;;;;;;;9.47;5.10;;;17.50;99.90;;;;;;4875962;29;20444;-49
2022/09/08 09:25:31;;;;;;;6.03;4.90;;;17.70;99.90;;;;;;4876747;29;20451;-49
2022/09/08 09:28:27;;;;;;;12.03;4.80;;;17.80;99.90;;;;;;4877654;29;20228;-49
2022/09/08 09:31:21;;;;;;;7.83;4.73;;;18.00;99.90;;;;;;4875385;29;20861;-49
2022/09/08 09:34:07;;;;;;;6.93;5.77;;;18.30;99.90;;;;;;4860934;29;20922;-49
2022/09/08 09:36:54;;;;;;;7.30;4.90;;;18.50;99.90;;;;;;4858392;29;20524;-49
2022/09/08 09:39:22;;;;;;;8.43;5.17;;;18.60;99.90;;;;;;4864953;29;20460;-49
2022/09/08 09:41:56;;;;;;;12.30;5.50;;;18.60;99.90;;;;;;4874461;29;20440;-49
2022/09/08 09:44:37;;;;;;;9.07;5.87;;;18.70;99.90;;;;;;4876195;29;20570;-49
2022/09/08 09:47:26;;;;;;;10.33;5.07;;;18.60;99.90;;;;;;4875663;29;20985;-49
2022/09/08 09:50:30;;;;;;;7.97;5.10;;;18.70;99.90;;;;;;4875614;29;20523;-61
2022/09/08 09:53:10;;;;;;;11.27;5.43;;;18.70;99.90;;;;;;4869620;29;20936;-65
2022/09/08 09:56:13;;;;;;;9.40;4.77;;;18.90;99.90;;;;;;4873522;29;20449;-64
2022/09/08 09:59:02;;;;;;;10.70;4.83;;;19.00;99.90;;;;;;4876426;29;20445;-65
2022/09/08 10:01:42;;;;;;;8.47;5.37;;;19.00;99.90;;;;;;4876549;29;20508;-65
2022/09/08 10:04:34;;;;;;;11.03;5.13;;;19.00;99.90;;;;;;4876711;29;20479;-67
2022/09/08 10:07:24;;;;;;;14.33;5.23;;;18.90;99.90;;;;;;4876751;29;20600;-65
2022/09/08 10:10:23;;;;;;;8.30;5.10;;;18.80;99.90;;;;;;4873146;29;20979;-66
2022/09/08 10:13:32;;;;;;;12.10;5.33;;;18.60;99.90;;;;;;4876901;29;20460;-67
2022/09/08 10:16:26;;;;;;;7.87;5.10;;;18.60;99.90;;;;;;4864395;29;20916;-64
2022/09/08 10:19:32;;;;;;;6.10;4.50;;;18.50;99.90;;;;;;4861086;29;20517;-63
2022/09/08 10:22:26;;;;;;;9.60;5.67;;;18.50;99.90;;;;;;4876066;29;20928;-66
2022/09/08 10:25:03;;;;;;;10.23;5.50;;;18.40;99.90;;;;;;4874388;29;20512;-66
2022/09/08 10:27:57;;;;;;;7.47;4.97;;;18.40;99.90;;;;;;4870653;29;20485;-66
2022/09/08 10:31:00;;;;;;;9.40;5.90;;;18.40;99.90;;;;;;4872785;29;20450;-63
2022/09/08 10:33:45;;;;;;;6.67;5.10;;;18.30;99.90;;;;;;4878533;29;20947;-65
2022/09/08 10:36:11;;;;;;;8.83;5.47;;;18.20;99.90;;;;;;4877609;29;21158;-61
2022/09/08 10:38:59;;;;;;;11.70;6.00;;;18.10;99.90;;;;;;4877492;29;20463;-65
2022/09/08 10:41:58;;;;;;;10.07;6.10;;;18.00;99.90;;;;;;4877533;29;20204;-62
2022/09/08 10:45:01;;;;;;;10.30;6.17;;;17.60;99.90;;;;;;4879220;29;20628;-62
2022/09/08 10:47:51;;;;;;;13.17;5.97;;;17.50;99.90;;;;;;4861196;29;20428;-63
2022/09/08 10:50:23;;;;;;;10.50;5.67;;;17.30;99.90;;;;;;4861403;29;20426;-64
2022/09/08 10:53:24;;;;;;;11.47;5.80;;;17.20;99.90;;;;;;4879438;29;20516;-69
2022/09/08 10:56:05;;;;;;;10.87;6.03;;;17.10;1.00;;;;;;4879736;29;20467;-66
2022/09/08 10:58:49;;;;;;;8.73;5.83;;;17.00;1.00;;;;;;4879209;29;20476;-47
2022/09/08 11:01:27;;;;;;;10.30;6.40;;;16.90;1.00;;;;;;4874526;29;20455;-47
2022/09/08 11:04:17;;;;;;;12.00;7.10;;;16.70;1.00;;;;;;4878312;29;20494;-47
2022/09/08 11:06:54;;;;;;;11.00;7.53;;;16.40;1.00;;;;;;4878983;29;20485;-47
2022/09/08 11:09:41;;;;;;;10.50;8.03;;;16.10;40.60;;;;;;4878927;29;20826;-47
2022/09/08 11:12:19;;;;;;;18.87;8.17;;;15.90;99.90;;;;;;4877695;29;20461;-47
2022/09/08 11:14:59;;;;;;;11.37;7.87;;;15.80;1.00;;;;;;4879113;29;20460;-47
2022/09/08 11:17:26;;;;;;;11.50;8.93;;;15.70;99.90;;;;;;4878444;29;20888;-46
2022/09/08 11:20:07;;;;;;;13.07;9.03;;;15.70;1.00;;;;;;4870832;29;20463;-47
2022/09/08 11:22:51;;;;;;;12.00;8.47;;;15.70;99.90;;;;;;4874411;29;20544;-53
2022/09/08 11:25:41;;;;;;;14.00;9.00;;;15.70;99.90;;;;;;4872795;29;20464;-47
2022/09/08 11:28:37;;;;;;;12.37;9.07;;;15.60;1.00;;;;;;4875722;29;20481;-47
2022/09/08 11:31:11;;;;;;;13.77;9.33;;;15.60;99.90;;;;;;4877258;29;20508;-47
2022/09/08 11:34:02;;;;;;;14.43;9.10;;;15.50;1.00;;;;;;4862373;29;20421;-47
2022/09/08 11:36:45;;;;;;;19.50;9.77;;;15.50;1.00;;;;;;4877157;29;20783;-46
2022/09/08 11:39:24;;;;;;;16.30;10.70;;;15.50;1.00;;;;;;4877694;29;20549;-47
2022/09/08 11:42:18;;;;;;;16.43;10.20;;;15.50;1.00;;;;;;4870126;29;20449;-47
2022/09/08 11:44:58;;;;;;;17.80;11.03;;;15.50;1.00;;;;;;4875440;29;20835;-46
2022/09/08 11:47:39;;;;;;;16.23;10.40;;;15.60;99.90;;;;;;4877622;29;20455;-46
2022/09/08 11:50:20;;;;;;;18.20;11.43;;;15.50;1.00;;;;;;4875219;29;20459;-46
2022/09/08 11:53:14;;;;;;;16.70;10.60;;;15.50;99.90;;;;;;4876800;29;20435;-46
2022/09/08 11:55:39;;;;;;;17.50;11.10;;;15.50;18.20;;;;;;4875753;29;20441;-47
2022/09/08 11:58:23;;;;;;;15.60;11.50;;;15.50;99.90;;;;;;4877050;29;20801;-47
2022/09/08 12:01:36;;;;;;;18.60;12.37;;;15.50;1.00;;;;;;4875501;29;20221;-47
2022/09/08 12:04:23;;;;;;;19.17;11.40;;;15.60;1.00;;;;;;4818691;29;20493;-51
2022/09/08 12:06:57;;;;;;;18.10;12.50;;;15.70;1.00;;;;;;4872763;29;20508;-51
2022/09/08 12:09:32;;;;;;;16.33;12.30;;;15.80;99.90;;;;;;4874532;29;20532;-51
2022/09/08 12:12:23;;;;;;;16.23;11.03;;;15.90;1.00;;;;;;4875954;29;20467;-52
2022/09/08 12:15:19;;;;;;;19.50;11.80;;;15.90;99.90;;;;;;4875222;29;20448;-51
2022/09/08 12:17:59;;;;;;;14.47;11.07;;;15.90;1.00;;;;;;4874913;29;20445;-46
2022/09/08 12:20:26;;;;;;;13.63;11.30;;;15.90;1.00;;;;;;4876040;29;20440;-47
2022/09/08 12:22:55;;;;;;;19.73;11.10;;;15.90;99.90;;;;;;4874929;29;20460;-47
2022/09/08 12:25:39;;;;;;;15.83;11.07;;;15.80;54.40;;;;;;4879039;29;20513;-47
2022/09/08 12:28:44;;;;;;;16.20;10.67;;;15.80;1.00;;;;;;4865802;29;21494;-46
2022/09/08 12:31:27;;;;;;;12.10;9.97;;;15.80;63.30;;;;;;4875435;29;20443;-46
2022/09/08 12:34:34;;;;;;;13.97;12.10;;;15.70;99.90;;;;;;4875099;29;20475;-47
2022/09/08 12:37:28;;;;;;;13.90;10.23;;;15.60;99.90;;;;;;4875464;29;20561;-47
2022/09/08 12:40:12;;;;;;;15.53;11.33;;;15.50;99.90;;;;;;4850987;29;20532;-63
2022/09/08 12:43:24;;;;;;;18.20;12.27;;;15.40;1.00;;;;;;4872495;29;20484;-47
2022/09/08 12:46:27;;;;;;;17.07;12.43;;;15.40;99.90;;;;;;4873048;29;20444;-53
2022/09/08 12:49:08;;;;;;;16.70;12.77;;;15.30;1.00;;;;;;4874013;29;20432;-47
2022/09/08 12:51:36;;;;;;;15.50;12.10;;;15.30;99.90;;;;;;4853564;29;20501;-47
2022/09/08 12:54:39;;;;;;;14.77;10.97;;;15.30;99.90;;;;;;4876706;29;20448;-46
2022/09/08 12:57:05;;;;;;;13.33;11.77;;;15.20;1.00;;;;;;4874508;29;21023;-47
2022/09/08 12:59:43;;;;;;;18.57;12.50;;;15.20;1.00;;;;;;4871108;29;20461;-47
2022/09/08 13:02:23;;;;;;;15.00;12.17;;;15.20;97.00;;;;;;4874470;29;20456;-46
2022/09/08 13:05:25;;;;;;;16.40;12.13;;;15.20;40.90;;;;;;4874546;29;20483;-46
2022/09/08 13:08:21;;;;;;;14.20;12.67;;;15.20;91.20;;;;;;4875663;29;20436;-46
2022/09/08 13:10:51;;;;;;;16.10;12.60;;;15.20;1.00;;;;;;4872364;29;20458;-47
2022/09/08 13:13:17;;;;;;;17.23;13.10;;;15.20;1.00;;;;;;4875318;29;20477;-46
2022/09/08 13:16:10;;;;;;;18.43;13.33;;;15.20;1.00;;;;;;4876254;29;20449;-46
2022/09/08 13:18:53;;;;;;;17.40;13.47;;;15.20;99.90;;;;;;4873447;29;20310;-46
2022/09/08 13:21:37;;;;;;;15.40;13.63;;;15.20;99.90;;;;;;4875982;29;20492;-47
2022/09/08 13:24:18;;;;;;;16.00;13.27;;;15.20;1.00;;;;;;4873377;29;20480;-47